sensor_id;sensor_type;location;lat;lon;timestamp;P1;durP1;ratioP1;P2;durP2;ratioP2
13234;SDS011;6683;48.506;9.050;2023-11-19T00:02:23;3.03;;;1.90;;
13234;SDS011;6683;48.506;9.050;2023-11-19T00:05:26;2.50;;;1.80;;
13234;SDS011;6683;48.506;9.050;2023-11-19T00:08:29;3.30;;;1.83;;
13234;SDS011;6683;48.506;9.050;2023-11-19T00:11:31;2.87;;;2.07;;
13234;SDS011;6683;48.506;9.050;2023-11-19T00:14:34;2.90;;;1.90;;
13234;SDS011;6683;48.506;9.050;2023-11-19T00:17:37;2.20;;;1.87;;
13234;SDS011;6683;48.506;9.050;2023-11-19T00:20:40;2.53;;;1.87;;
13234;SDS011;6683;48.506;9.050;2023-11-19T00:23:44;2.07;;;1.73;;
13234;SDS011;6683;48.506;9.050;2023-11-19T00:26:46;2.97;;;2.13;;
13234;SDS011;6683;48.506;9.050;2023-11-19T00:29:51;2.47;;;2.27;;
13234;SDS011;6683;48.506;9.050;2023-11-19T00:32:53;2.40;;;2.13;;
13234;SDS011;6683;48.506;9.050;2023-11-19T00:35:55;2.30;;;2.07;;
13234;SDS011;6683;48.506;9.050;2023-11-19T00:38:58;2.23;;;1.83;;
13234;SDS011;6683;48.506;9.050;2023-11-19T00:42:00;1.90;;;1.70;;
13234;SDS011;6683;48.506;9.050;2023-11-19T00:45:04;2.37;;;1.90;;
13234;SDS011;6683;48.506;9.050;2023-11-19T00:48:10;1.77;;;1.67;;
13234;SDS011;6683;48.506;9.050;2023-11-19T00:51:13;2.00;;;1.80;;
13234;SDS011;6683;48.506;9.050;2023-11-19T00:54:15;1.87;;;1.57;;
13234;SDS011;6683;48.506;9.050;2023-11-19T00:57:18;2.00;;;1.60;;
13234;SDS011;6683;48.506;9.050;2023-11-19T01:00:22;2.10;;;1.90;;
13234;SDS011;6683;48.506;9.050;2023-11-19T01:03:27;2.60;;;1.60;;
13234;SDS011;6683;48.506;9.050;2023-11-19T01:06:29;2.00;;;1.80;;
13234;SDS011;6683;48.506;9.050;2023-11-19T01:09:31;2.00;;;1.80;;
13234;SDS011;6683;48.506;9.050;2023-11-19T01:12:34;2.47;;;1.83;;
13234;SDS011;6683;48.506;9.050;2023-11-19T01:15:39;2.07;;;1.87;;
13234;SDS011;6683;48.506;9.050;2023-11-19T01:18:41;2.20;;;1.90;;
13234;SDS011;6683;48.506;9.050;2023-11-19T01:21:44;2.07;;;1.60;;
13234;SDS011;6683;48.506;9.050;2023-11-19T01:24:46;2.77;;;1.60;;
13234;SDS011;6683;48.506;9.050;2023-11-19T01:27:49;1.87;;;1.70;;
13234;SDS011;6683;48.506;9.050;2023-11-19T01:30:53;1.90;;;1.60;;
13234;SDS011;6683;48.506;9.050;2023-11-19T01:33:55;2.10;;;1.60;;
13234;SDS011;6683;48.506;9.050;2023-11-19T01:36:57;4.60;;;1.50;;
13234;SDS011;6683;48.506;9.050;2023-11-19T01:40:09;1.20;;;1.10;;
13234;SDS011;6683;48.506;9.050;2023-11-19T01:46:41;2.37;;;1.50;;
13234;SDS011;6683;48.506;9.050;2023-11-19T01:49:47;1.63;;;1.37;;
13234;SDS011;6683;48.506;9.050;2023-11-19T01:52:50;1.40;;;1.30;;
13234;SDS011;6683;48.506;9.050;2023-11-19T01:55:54;1.13;;;0.90;;
13234;SDS011;6683;48.506;9.050;2023-11-19T01:58:57;1.67;;;1.40;;
13234;SDS011;6683;48.506;9.050;2023-11-19T02:02:01;1.03;;;0.93;;
13234;SDS011;6683;48.506;9.050;2023-11-19T02:05:03;1.67;;;1.00;;
13234;SDS011;6683;48.506;9.050;2023-11-19T02:08:06;1.23;;;0.80;;
13234;SDS011;6683;48.506;9.050;2023-11-19T02:11:09;1.37;;;0.90;;
13234;SDS011;6683;48.506;9.050;2023-11-19T02:14:12;1.10;;;1.00;;
13234;SDS011;6683;48.506;9.050;2023-11-19T02:17:28;1.03;;;0.90;;
13234;SDS011;6683;48.506;9.050;2023-11-19T02:20:31;0.87;;;0.83;;
13234;SDS011;6683;48.506;9.050;2023-11-19T02:23:33;0.70;;;0.70;;
13234;SDS011;6683;48.506;9.050;2023-11-19T02:26:37;0.80;;;0.80;;
13234;SDS011;6683;48.506;9.050;2023-11-19T02:29:47;0.70;;;0.70;;
13234;SDS011;6683;48.506;9.050;2023-11-19T02:32:49;1.10;;;0.77;;
13234;SDS011;6683;48.506;9.050;2023-11-19T02:35:51;1.57;;;0.90;;
13234;SDS011;6683;48.506;9.050;2023-11-19T02:38:53;1.30;;;0.70;;
13234;SDS011;6683;48.506;9.050;2023-11-19T02:41:56;1.10;;;0.70;;
13234;SDS011;6683;48.506;9.050;2023-11-19T02:45:00;1.13;;;0.87;;
13234;SDS011;6683;48.506;9.050;2023-11-19T02:48:06;1.00;;;0.70;;
13234;SDS011;6683;48.506;9.050;2023-11-19T02:51:09;0.80;;;0.80;;
13234;SDS011;6683;48.506;9.050;2023-11-19T02:54:12;0.80;;;0.60;;
13234;SDS011;6683;48.506;9.050;2023-11-19T02:57:14;0.90;;;0.70;;
13234;SDS011;6683;48.506;9.050;2023-11-19T03:00:21;0.60;;;0.50;;
13234;SDS011;6683;48.506;9.050;2023-11-19T03:03:25;0.80;;;0.60;;
13234;SDS011;6683;48.506;9.050;2023-11-19T03:06:37;0.97;;;0.60;;
13234;SDS011;6683;48.506;9.050;2023-11-19T03:09:40;2.10;;;0.80;;
13234;SDS011;6683;48.506;9.050;2023-11-19T03:12:44;0.60;;;0.60;;
13234;SDS011;6683;48.506;9.050;2023-11-19T03:15:48;0.67;;;0.57;;
13234;SDS011;6683;48.506;9.050;2023-11-19T03:18:51;0.60;;;0.60;;
13234;SDS011;6683;48.506;9.050;2023-11-19T03:21:53;0.60;;;0.47;;
13234;SDS011;6683;48.506;9.050;2023-11-19T03:24:56;0.70;;;0.70;;
13234;SDS011;6683;48.506;9.050;2023-11-19T03:27:58;0.87;;;0.50;;
13234;SDS011;6683;48.506;9.050;2023-11-19T03:31:02;0.40;;;0.40;;
13234;SDS011;6683;48.506;9.050;2023-11-19T03:34:08;0.50;;;0.50;;
13234;SDS011;6683;48.506;9.050;2023-11-19T03:37:10;0.57;;;0.50;;
13234;SDS011;6683;48.506;9.050;2023-11-19T03:40:16;0.90;;;0.40;;
13234;SDS011;6683;48.506;9.050;2023-11-19T03:43:20;1.00;;;0.43;;
13234;SDS011;6683;48.506;9.050;2023-11-19T03:46:23;0.40;;;0.40;;
13234;SDS011;6683;48.506;9.050;2023-11-19T03:49:25;0.40;;;0.40;;
13234;SDS011;6683;48.506;9.050;2023-11-19T03:52:28;0.53;;;0.47;;
13234;SDS011;6683;48.506;9.050;2023-11-19T03:55:30;0.30;;;0.30;;
13234;SDS011;6683;48.506;9.050;2023-11-19T03:58:32;0.63;;;0.53;;
13234;SDS011;6683;48.506;9.050;2023-11-19T04:01:37;0.40;;;0.40;;
13234;SDS011;6683;48.506;9.050;2023-11-19T04:04:39;0.57;;;0.57;;
13234;SDS011;6683;48.506;9.050;2023-11-19T04:07:41;0.50;;;0.50;;
13234;SDS011;6683;48.506;9.050;2023-11-19T04:10:43;0.53;;;0.40;;
13234;SDS011;6683;48.506;9.050;2023-11-19T04:13:45;0.50;;;0.50;;
13234;SDS011;6683;48.506;9.050;2023-11-19T04:16:49;0.60;;;0.50;;
13234;SDS011;6683;48.506;9.050;2023-11-19T04:19:51;1.17;;;0.40;;
13234;SDS011;6683;48.506;9.050;2023-11-19T04:22:53;0.67;;;0.33;;
13234;SDS011;6683;48.506;9.050;2023-11-19T04:25:56;0.30;;;0.30;;
13234;SDS011;6683;48.506;9.050;2023-11-19T04:28:58;0.67;;;0.50;;
13234;SDS011;6683;48.506;9.050;2023-11-19T04:32:02;0.40;;;0.33;;
13234;SDS011;6683;48.506;9.050;2023-11-19T04:35:05;1.13;;;0.37;;
13234;SDS011;6683;48.506;9.050;2023-11-19T04:38:09;0.40;;;0.40;;
13234;SDS011;6683;48.506;9.050;2023-11-19T04:41:11;0.40;;;0.40;;
13234;SDS011;6683;48.506;9.050;2023-11-19T04:44:14;0.40;;;0.40;;
13234;SDS011;6683;48.506;9.050;2023-11-19T04:47:19;0.67;;;0.40;;
13234;SDS011;6683;48.506;9.050;2023-11-19T04:50:21;0.70;;;0.40;;
13234;SDS011;6683;48.506;9.050;2023-11-19T04:53:23;0.40;;;0.40;;
13234;SDS011;6683;48.506;9.050;2023-11-19T04:56:25;0.43;;;0.40;;
13234;SDS011;6683;48.506;9.050;2023-11-19T04:59:27;1.27;;;0.30;;
13234;SDS011;6683;48.506;9.050;2023-11-19T05:02:30;0.37;;;0.30;;
13234;SDS011;6683;48.506;9.050;2023-11-19T05:05:32;0.30;;;0.30;;
13234;SDS011;6683;48.506;9.050;2023-11-19T05:08:35;0.87;;;0.30;;
13234;SDS011;6683;48.506;9.050;2023-11-19T05:11:37;0.30;;;0.30;;
13234;SDS011;6683;48.506;9.050;2023-11-19T05:14:40;0.40;;;0.30;;
13234;SDS011;6683;48.506;9.050;2023-11-19T05:17:49;0.53;;;0.37;;
13234;SDS011;6683;48.506;9.050;2023-11-19T05:20:52;0.23;;;0.23;;
13234;SDS011;6683;48.506;9.050;2023-11-19T05:23:54;0.30;;;0.30;;
13234;SDS011;6683;48.506;9.050;2023-11-19T05:26:56;0.47;;;0.30;;
13234;SDS011;6683;48.506;9.050;2023-11-19T05:29:59;0.97;;;0.43;;
13234;SDS011;6683;48.506;9.050;2023-11-19T05:33:02;0.23;;;0.20;;
13234;SDS011;6683;48.506;9.050;2023-11-19T05:36:05;0.30;;;0.20;;
13234;SDS011;6683;48.506;9.050;2023-11-19T05:39:08;0.20;;;0.20;;
13234;SDS011;6683;48.506;9.050;2023-11-19T05:42:11;0.53;;;0.30;;
13234;SDS011;6683;48.506;9.050;2023-11-19T05:45:13;0.20;;;0.20;;
13234;SDS011;6683;48.506;9.050;2023-11-19T05:48:17;0.30;;;0.30;;
13234;SDS011;6683;48.506;9.050;2023-11-19T05:51:19;0.87;;;0.30;;
13234;SDS011;6683;48.506;9.050;2023-11-19T05:54:21;0.20;;;0.20;;
13234;SDS011;6683;48.506;9.050;2023-11-19T05:57:23;1.17;;;0.20;;
13234;SDS011;6683;48.506;9.050;2023-11-19T06:00:25;0.30;;;0.23;;
13234;SDS011;6683;48.506;9.050;2023-11-19T06:03:29;0.20;;;0.20;;
13234;SDS011;6683;48.506;9.050;2023-11-19T06:06:31;2.07;;;0.20;;
13234;SDS011;6683;48.506;9.050;2023-11-19T06:09:33;0.53;;;0.30;;
13234;SDS011;6683;48.506;9.050;2023-11-19T06:12:35;0.30;;;0.30;;
13234;SDS011;6683;48.506;9.050;2023-11-19T06:15:38;0.40;;;0.37;;
13234;SDS011;6683;48.506;9.050;2023-11-19T06:18:42;1.67;;;0.80;;
13234;SDS011;6683;48.506;9.050;2023-11-19T06:21:45;1.87;;;1.53;;
13234;SDS011;6683;48.506;9.050;2023-11-19T06:24:47;2.73;;;1.30;;
13234;SDS011;6683;48.506;9.050;2023-11-19T06:27:49;1.40;;;0.90;;
13234;SDS011;6683;48.506;9.050;2023-11-19T06:30:51;2.37;;;2.00;;
13234;SDS011;6683;48.506;9.050;2023-11-19T06:33:55;2.40;;;1.93;;
13234;SDS011;6683;48.506;9.050;2023-11-19T06:36:57;1.10;;;1.00;;
13234;SDS011;6683;48.506;9.050;2023-11-19T06:39:59;1.93;;;0.70;;
13234;SDS011;6683;48.506;9.050;2023-11-19T06:43:01;1.43;;;0.63;;
13234;SDS011;6683;48.506;9.050;2023-11-19T06:46:03;0.40;;;0.40;;
13234;SDS011;6683;48.506;9.050;2023-11-19T06:49:07;0.40;;;0.30;;
13234;SDS011;6683;48.506;9.050;2023-11-19T06:52:10;0.93;;;0.30;;
13234;SDS011;6683;48.506;9.050;2023-11-19T06:55:12;0.57;;;0.40;;
13234;SDS011;6683;48.506;9.050;2023-11-19T06:58:14;0.50;;;0.40;;
13234;SDS011;6683;48.506;9.050;2023-11-19T07:01:18;0.50;;;0.50;;
13234;SDS011;6683;48.506;9.050;2023-11-19T07:04:22;3.97;;;3.20;;
13234;SDS011;6683;48.506;9.050;2023-11-19T07:07:24;2.77;;;1.70;;
13234;SDS011;6683;48.506;9.050;2023-11-19T07:10:26;1.10;;;1.00;;
13234;SDS011;6683;48.506;9.050;2023-11-19T07:13:30;2.30;;;1.10;;
13234;SDS011;6683;48.506;9.050;2023-11-19T07:16:32;1.47;;;0.90;;
13234;SDS011;6683;48.506;9.050;2023-11-19T07:19:35;1.40;;;0.83;;
13234;SDS011;6683;48.506;9.050;2023-11-19T07:22:38;1.50;;;0.70;;
13234;SDS011;6683;48.506;9.050;2023-11-19T07:25:40;1.20;;;0.60;;
13234;SDS011;6683;48.506;9.050;2023-11-19T07:28:43;0.67;;;0.50;;
13234;SDS011;6683;48.506;9.050;2023-11-19T07:31:45;0.50;;;0.50;;
13234;SDS011;6683;48.506;9.050;2023-11-19T07:34:49;0.47;;;0.47;;
13234;SDS011;6683;48.506;9.050;2023-11-19T07:37:51;1.10;;;0.40;;
13234;SDS011;6683;48.506;9.050;2023-11-19T07:40:53;0.80;;;0.40;;
13234;SDS011;6683;48.506;9.050;2023-11-19T07:43:55;0.43;;;0.30;;
13234;SDS011;6683;48.506;9.050;2023-11-19T07:46:57;0.40;;;0.40;;
13234;SDS011;6683;48.506;9.050;2023-11-19T07:50:01;1.10;;;0.40;;
13234;SDS011;6683;48.506;9.050;2023-11-19T07:53:03;0.20;;;0.20;;
13234;SDS011;6683;48.506;9.050;2023-11-19T07:56:06;0.20;;;0.20;;
13234;SDS011;6683;48.506;9.050;2023-11-19T07:59:09;0.30;;;0.30;;
13234;SDS011;6683;48.506;9.050;2023-11-19T08:02:11;0.20;;;0.20;;
13234;SDS011;6683;48.506;9.050;2023-11-19T08:05:16;0.20;;;0.20;;
13234;SDS011;6683;48.506;9.050;2023-11-19T08:08:18;0.30;;;0.20;;
13234;SDS011;6683;48.506;9.050;2023-11-19T08:11:20;0.27;;;0.20;;
13234;SDS011;6683;48.506;9.050;2023-11-19T08:14:22;1.23;;;0.30;;
13234;SDS011;6683;48.506;9.050;2023-11-19T08:17:24;0.97;;;0.20;;
13234;SDS011;6683;48.506;9.050;2023-11-19T08:20:28;0.70;;;0.30;;
13234;SDS011;6683;48.506;9.050;2023-11-19T08:23:30;0.30;;;0.20;;
13234;SDS011;6683;48.506;9.050;2023-11-19T08:26:32;0.43;;;0.20;;
13234;SDS011;6683;48.506;9.050;2023-11-19T08:29:34;0.40;;;0.20;;
13234;SDS011;6683;48.506;9.050;2023-11-19T08:32:36;0.30;;;0.30;;
13234;SDS011;6683;48.506;9.050;2023-11-19T08:35:40;0.40;;;0.30;;
13234;SDS011;6683;48.506;9.050;2023-11-19T08:38:42;0.67;;;0.30;;
13234;SDS011;6683;48.506;9.050;2023-11-19T08:41:44;0.63;;;0.40;;
13234;SDS011;6683;48.506;9.050;2023-11-19T08:44:48;1.20;;;0.50;;
13234;SDS011;6683;48.506;9.050;2023-11-19T08:47:54;0.80;;;0.50;;
13234;SDS011;6683;48.506;9.050;2023-11-19T08:50:57;0.57;;;0.50;;
13234;SDS011;6683;48.506;9.050;2023-11-19T08:53:59;2.10;;;1.03;;
13234;SDS011;6683;48.506;9.050;2023-11-19T08:57:01;1.20;;;0.60;;
13234;SDS011;6683;48.506;9.050;2023-11-19T09:00:04;0.43;;;0.40;;
13234;SDS011;6683;48.506;9.050;2023-11-19T09:03:08;0.63;;;0.40;;
13234;SDS011;6683;48.506;9.050;2023-11-19T09:06:11;0.50;;;0.40;;
13234;SDS011;6683;48.506;9.050;2023-11-19T09:09:14;0.70;;;0.40;;
13234;SDS011;6683;48.506;9.050;2023-11-19T09:12:16;0.50;;;0.30;;
13234;SDS011;6683;48.506;9.050;2023-11-19T09:15:18;0.67;;;0.27;;
13234;SDS011;6683;48.506;9.050;2023-11-19T09:18:20;0.30;;;0.30;;
13234;SDS011;6683;48.506;9.050;2023-11-19T09:21:23;0.43;;;0.30;;
13234;SDS011;6683;48.506;9.050;2023-11-19T09:24:25;0.33;;;0.33;;
13234;SDS011;6683;48.506;9.050;2023-11-19T09:27:28;0.30;;;0.30;;
13234;SDS011;6683;48.506;9.050;2023-11-19T09:30:30;0.70;;;0.40;;
13234;SDS011;6683;48.506;9.050;2023-11-19T09:33:33;0.97;;;0.30;;
13234;SDS011;6683;48.506;9.050;2023-11-19T09:36:37;1.00;;;0.40;;
13234;SDS011;6683;48.506;9.050;2023-11-19T09:39:43;0.30;;;0.30;;
13234;SDS011;6683;48.506;9.050;2023-11-19T09:42:47;0.30;;;0.20;;
13234;SDS011;6683;48.506;9.050;2023-11-19T09:45:49;0.30;;;0.30;;
13234;SDS011;6683;48.506;9.050;2023-11-19T09:48:52;0.50;;;0.40;;
13234;SDS011;6683;48.506;9.050;2023-11-19T09:51:57;1.20;;;0.30;;
13234;SDS011;6683;48.506;9.050;2023-11-19T09:54:59;0.60;;;0.40;;
13234;SDS011;6683;48.506;9.050;2023-11-19T09:58:02;0.30;;;0.30;;
13234;SDS011;6683;48.506;9.050;2023-11-19T10:01:04;0.27;;;0.23;;
13234;SDS011;6683;48.506;9.050;2023-11-19T10:04:07;0.67;;;0.50;;
13234;SDS011;6683;48.506;9.050;2023-11-19T10:07:12;1.23;;;0.40;;
13234;SDS011;6683;48.506;9.050;2023-11-19T10:10:14;0.50;;;0.40;;
13234;SDS011;6683;48.506;9.050;2023-11-19T10:13:19;0.93;;;0.40;;
13234;SDS011;6683;48.506;9.050;2023-11-19T10:16:30;0.30;;;0.30;;
13234;SDS011;6683;48.506;9.050;2023-11-19T10:19:32;0.50;;;0.40;;
13234;SDS011;6683;48.506;9.050;2023-11-19T10:22:38;0.50;;;0.50;;
13234;SDS011;6683;48.506;9.050;2023-11-19T10:25:40;0.33;;;0.30;;
13234;SDS011;6683;48.506;9.050;2023-11-19T10:28:42;0.30;;;0.30;;
13234;SDS011;6683;48.506;9.050;2023-11-19T10:31:55;0.77;;;0.40;;
13234;SDS011;6683;48.506;9.050;2023-11-19T10:35:04;0.60;;;0.40;;
13234;SDS011;6683;48.506;9.050;2023-11-19T10:38:14;0.30;;;0.30;;
13234;SDS011;6683;48.506;9.050;2023-11-19T10:41:26;0.67;;;0.30;;
13234;SDS011;6683;48.506;9.050;2023-11-19T10:44:32;0.73;;;0.50;;
13234;SDS011;6683;48.506;9.050;2023-11-19T10:47:36;0.40;;;0.30;;
13234;SDS011;6683;48.506;9.050;2023-11-19T10:50:50;0.43;;;0.40;;
13234;SDS011;6683;48.506;9.050;2023-11-19T10:54:01;0.33;;;0.33;;
13234;SDS011;6683;48.506;9.050;2023-11-19T10:57:06;0.50;;;0.30;;
13234;SDS011;6683;48.506;9.050;2023-11-19T11:00:13;0.33;;;0.30;;
13234;SDS011;6683;48.506;9.050;2023-11-19T11:03:19;0.40;;;0.30;;
13234;SDS011;6683;48.506;9.050;2023-11-19T11:06:23;0.40;;;0.40;;
13234;SDS011;6683;48.506;9.050;2023-11-19T11:09:28;0.67;;;0.37;;
13234;SDS011;6683;48.506;9.050;2023-11-19T11:12:31;0.60;;;0.30;;
13234;SDS011;6683;48.506;9.050;2023-11-19T11:15:37;0.30;;;0.20;;
13234;SDS011;6683;48.506;9.050;2023-11-19T11:18:42;0.30;;;0.27;;
13234;SDS011;6683;48.506;9.050;2023-11-19T11:21:45;0.30;;;0.20;;
13234;SDS011;6683;48.506;9.050;2023-11-19T11:25:05;0.30;;;0.30;;
13234;SDS011;6683;48.506;9.050;2023-11-19T11:28:24;0.33;;;0.30;;
13234;SDS011;6683;48.506;9.050;2023-11-19T11:31:36;0.30;;;0.30;;
13234;SDS011;6683;48.506;9.050;2023-11-19T11:34:53;0.20;;;0.20;;
13234;SDS011;6683;48.506;9.050;2023-11-19T11:38:14;0.30;;;0.20;;
13234;SDS011;6683;48.506;9.050;2023-11-19T11:41:24;0.20;;;0.20;;
13234;SDS011;6683;48.506;9.050;2023-11-19T11:48:12;0.20;;;0.20;;
13234;SDS011;6683;48.506;9.050;2023-11-19T11:51:16;0.30;;;0.20;;
13234;SDS011;6683;48.506;9.050;2023-11-19T11:54:25;0.50;;;0.40;;
13234;SDS011;6683;48.506;9.050;2023-11-19T11:57:31;1.27;;;0.30;;
13234;SDS011;6683;48.506;9.050;2023-11-19T12:00:39;0.30;;;0.20;;
13234;SDS011;6683;48.506;9.050;2023-11-19T12:03:43;0.40;;;0.30;;
13234;SDS011;6683;48.506;9.050;2023-11-19T12:06:58;0.40;;;0.30;;
13234;SDS011;6683;48.506;9.050;2023-11-19T12:10:06;0.83;;;0.30;;
13234;SDS011;6683;48.506;9.050;2023-11-19T12:13:13;0.40;;;0.37;;
13234;SDS011;6683;48.506;9.050;2023-11-19T12:16:16;1.00;;;0.30;;
13234;SDS011;6683;48.506;9.050;2023-11-19T12:19:18;0.77;;;0.33;;
13234;SDS011;6683;48.506;9.050;2023-11-19T12:22:21;0.30;;;0.30;;
13234;SDS011;6683;48.506;9.050;2023-11-19T12:25:25;0.87;;;0.57;;
13234;SDS011;6683;48.506;9.050;2023-11-19T12:28:29;0.30;;;0.30;;
13234;SDS011;6683;48.506;9.050;2023-11-19T12:31:32;1.60;;;0.40;;
13234;SDS011;6683;48.506;9.050;2023-11-19T12:34:36;0.30;;;0.30;;
13234;SDS011;6683;48.506;9.050;2023-11-19T12:37:39;0.47;;;0.20;;
13234;SDS011;6683;48.506;9.050;2023-11-19T12:40:42;0.33;;;0.23;;
13234;SDS011;6683;48.506;9.050;2023-11-19T12:43:46;0.93;;;0.30;;
13234;SDS011;6683;48.506;9.050;2023-11-19T12:47:01;0.90;;;0.80;;
13234;SDS011;6683;48.506;9.050;2023-11-19T12:50:06;1.30;;;1.00;;
13234;SDS011;6683;48.506;9.050;2023-11-19T12:53:10;0.80;;;0.80;;
13234;SDS011;6683;48.506;9.050;2023-11-19T12:56:12;1.80;;;0.77;;
13234;SDS011;6683;48.506;9.050;2023-11-19T12:59:19;1.70;;;0.60;;
13234;SDS011;6683;48.506;9.050;2023-11-19T13:02:22;0.67;;;0.67;;
13234;SDS011;6683;48.506;9.050;2023-11-19T13:05:45;1.00;;;0.80;;
13234;SDS011;6683;48.506;9.050;2023-11-19T13:08:49;0.60;;;0.50;;
13234;SDS011;6683;48.506;9.050;2023-11-19T13:11:55;1.23;;;0.50;;
13234;SDS011;6683;48.506;9.050;2023-11-19T13:15:00;0.47;;;0.33;;
13234;SDS011;6683;48.506;9.050;2023-11-19T13:18:06;0.70;;;0.50;;
13234;SDS011;6683;48.506;9.050;2023-11-19T13:21:14;0.40;;;0.30;;
13234;SDS011;6683;48.506;9.050;2023-11-19T13:24:16;0.57;;;0.50;;
13234;SDS011;6683;48.506;9.050;2023-11-19T13:27:19;0.40;;;0.40;;
13234;SDS011;6683;48.506;9.050;2023-11-19T13:30:23;1.27;;;0.40;;
13234;SDS011;6683;48.506;9.050;2023-11-19T13:33:25;0.60;;;0.40;;
13234;SDS011;6683;48.506;9.050;2023-11-19T13:36:27;0.60;;;0.30;;
13234;SDS011;6683;48.506;9.050;2023-11-19T13:39:30;1.47;;;0.30;;
13234;SDS011;6683;48.506;9.050;2023-11-19T13:42:32;0.93;;;0.50;;
13234;SDS011;6683;48.506;9.050;2023-11-19T13:45:36;0.77;;;0.40;;
13234;SDS011;6683;48.506;9.050;2023-11-19T13:48:38;3.60;;;0.60;;
13234;SDS011;6683;48.506;9.050;2023-11-19T13:51:40;1.00;;;0.50;;
13234;SDS011;6683;48.506;9.050;2023-11-19T13:54:42;1.27;;;0.40;;
13234;SDS011;6683;48.506;9.050;2023-11-19T13:57:45;0.60;;;0.40;;
13234;SDS011;6683;48.506;9.050;2023-11-19T14:00:50;0.50;;;0.30;;
13234;SDS011;6683;48.506;9.050;2023-11-19T14:03:52;1.23;;;0.30;;
13234;SDS011;6683;48.506;9.050;2023-11-19T14:06:54;1.60;;;0.40;;
13234;SDS011;6683;48.506;9.050;2023-11-19T14:09:56;0.70;;;0.30;;
13234;SDS011;6683;48.506;9.050;2023-11-19T14:12:58;0.90;;;0.30;;
13234;SDS011;6683;48.506;9.050;2023-11-19T14:16:02;1.00;;;0.40;;
13234;SDS011;6683;48.506;9.050;2023-11-19T14:19:06;0.40;;;0.30;;
13234;SDS011;6683;48.506;9.050;2023-11-19T14:22:08;0.50;;;0.30;;
13234;SDS011;6683;48.506;9.050;2023-11-19T14:25:11;0.90;;;0.43;;
13234;SDS011;6683;48.506;9.050;2023-11-19T14:28:13;1.23;;;0.30;;
13234;SDS011;6683;48.506;9.050;2023-11-19T14:31:16;0.67;;;0.40;;
13234;SDS011;6683;48.506;9.050;2023-11-19T14:34:19;0.93;;;0.40;;
13234;SDS011;6683;48.506;9.050;2023-11-19T14:37:21;0.40;;;0.37;;
13234;SDS011;6683;48.506;9.050;2023-11-19T14:40:23;0.77;;;0.40;;
13234;SDS011;6683;48.506;9.050;2023-11-19T14:43:26;0.60;;;0.40;;
13234;SDS011;6683;48.506;9.050;2023-11-19T14:46:29;1.60;;;0.80;;
13234;SDS011;6683;48.506;9.050;2023-11-19T14:49:32;0.97;;;0.70;;
13234;SDS011;6683;48.506;9.050;2023-11-19T14:52:36;0.50;;;0.37;;
13234;SDS011;6683;48.506;9.050;2023-11-19T14:55:39;0.60;;;0.60;;
13234;SDS011;6683;48.506;9.050;2023-11-19T14:58:41;0.57;;;0.50;;
13234;SDS011;6683;48.506;9.050;2023-11-19T15:01:46;0.60;;;0.50;;
13234;SDS011;6683;48.506;9.050;2023-11-19T15:04:48;0.70;;;0.43;;
13234;SDS011;6683;48.506;9.050;2023-11-19T15:07:50;0.93;;;0.37;;
13234;SDS011;6683;48.506;9.050;2023-11-19T15:10:53;0.60;;;0.40;;
13234;SDS011;6683;48.506;9.050;2023-11-19T15:13:57;0.30;;;0.30;;
13234;SDS011;6683;48.506;9.050;2023-11-19T15:17:01;0.60;;;0.40;;
13234;SDS011;6683;48.506;9.050;2023-11-19T15:20:05;0.47;;;0.40;;
13234;SDS011;6683;48.506;9.050;2023-11-19T15:23:09;1.10;;;0.40;;
13234;SDS011;6683;48.506;9.050;2023-11-19T15:26:11;1.17;;;0.30;;
13234;SDS011;6683;48.506;9.050;2023-11-19T15:29:13;0.40;;;0.30;;
13234;SDS011;6683;48.506;9.050;2023-11-19T15:32:16;0.80;;;0.50;;
13234;SDS011;6683;48.506;9.050;2023-11-19T15:35:19;2.53;;;0.50;;
13234;SDS011;6683;48.506;9.050;2023-11-19T15:38:22;1.20;;;0.60;;
13234;SDS011;6683;48.506;9.050;2023-11-19T15:41:24;0.43;;;0.40;;
13234;SDS011;6683;48.506;9.050;2023-11-19T15:44:27;0.70;;;0.40;;
13234;SDS011;6683;48.506;9.050;2023-11-19T15:47:31;0.97;;;0.40;;
13234;SDS011;6683;48.506;9.050;2023-11-19T15:50:35;0.90;;;0.40;;
13234;SDS011;6683;48.506;9.050;2023-11-19T15:53:37;1.37;;;0.57;;
13234;SDS011;6683;48.506;9.050;2023-11-19T15:56:39;1.40;;;0.80;;
13234;SDS011;6683;48.506;9.050;2023-11-19T15:59:41;1.80;;;0.80;;
13234;SDS011;6683;48.506;9.050;2023-11-19T16:02:45;2.13;;;1.10;;
13234;SDS011;6683;48.506;9.050;2023-11-19T16:05:47;1.33;;;1.23;;
13234;SDS011;6683;48.506;9.050;2023-11-19T16:08:49;1.27;;;1.00;;
13234;SDS011;6683;48.506;9.050;2023-11-19T16:11:51;0.80;;;0.70;;
13234;SDS011;6683;48.506;9.050;2023-11-19T16:14:54;1.73;;;1.03;;
13234;SDS011;6683;48.506;9.050;2023-11-19T16:17:58;2.70;;;0.90;;
13234;SDS011;6683;48.506;9.050;2023-11-19T16:21:00;0.80;;;0.60;;
13234;SDS011;6683;48.506;9.050;2023-11-19T16:24:03;0.63;;;0.60;;
13234;SDS011;6683;48.506;9.050;2023-11-19T16:27:07;0.53;;;0.50;;
13234;SDS011;6683;48.506;9.050;2023-11-19T16:30:10;1.30;;;0.50;;
13234;SDS011;6683;48.506;9.050;2023-11-19T16:33:14;2.63;;;0.83;;
13234;SDS011;6683;48.506;9.050;2023-11-19T16:36:16;0.60;;;0.60;;
13234;SDS011;6683;48.506;9.050;2023-11-19T16:39:19;0.70;;;0.60;;
13234;SDS011;6683;48.506;9.050;2023-11-19T16:42:21;0.70;;;0.50;;
13234;SDS011;6683;48.506;9.050;2023-11-19T16:45:24;0.60;;;0.50;;
13234;SDS011;6683;48.506;9.050;2023-11-19T16:48:27;1.43;;;0.67;;
13234;SDS011;6683;48.506;9.050;2023-11-19T16:51:29;1.47;;;0.60;;
13234;SDS011;6683;48.506;9.050;2023-11-19T16:54:31;0.60;;;0.50;;
13234;SDS011;6683;48.506;9.050;2023-11-19T16:57:34;1.00;;;0.80;;
13234;SDS011;6683;48.506;9.050;2023-11-19T17:00:36;0.50;;;0.47;;
13234;SDS011;6683;48.506;9.050;2023-11-19T17:03:39;1.10;;;0.80;;
13234;SDS011;6683;48.506;9.050;2023-11-19T17:06:42;1.50;;;0.60;;
13234;SDS011;6683;48.506;9.050;2023-11-19T17:09:44;1.20;;;0.80;;
13234;SDS011;6683;48.506;9.050;2023-11-19T17:12:46;1.30;;;1.20;;
13234;SDS011;6683;48.506;9.050;2023-11-19T17:15:49;2.20;;;0.90;;
13234;SDS011;6683;48.506;9.050;2023-11-19T17:18:53;0.90;;;0.80;;
13234;SDS011;6683;48.506;9.050;2023-11-19T17:21:55;1.97;;;0.77;;
13234;SDS011;6683;48.506;9.050;2023-11-19T17:24:57;1.33;;;0.90;;
13234;SDS011;6683;48.506;9.050;2023-11-19T17:27:59;1.47;;;1.10;;
13234;SDS011;6683;48.506;9.050;2023-11-19T17:31:04;1.70;;;1.17;;
13234;SDS011;6683;48.506;9.050;2023-11-19T17:34:07;1.37;;;1.00;;
13234;SDS011;6683;48.506;9.050;2023-11-19T17:37:09;1.60;;;1.03;;
13234;SDS011;6683;48.506;9.050;2023-11-19T17:40:11;1.20;;;1.07;;
13234;SDS011;6683;48.506;9.050;2023-11-19T17:43:16;1.20;;;1.07;;
13234;SDS011;6683;48.506;9.050;2023-11-19T17:46:19;2.00;;;1.20;;
13234;SDS011;6683;48.506;9.050;2023-11-19T17:49:22;1.60;;;1.33;;
13234;SDS011;6683;48.506;9.050;2023-11-19T17:52:25;2.67;;;1.20;;
13234;SDS011;6683;48.506;9.050;2023-11-19T17:55:27;1.70;;;1.30;;
13234;SDS011;6683;48.506;9.050;2023-11-19T17:58:29;1.47;;;1.37;;
13234;SDS011;6683;48.506;9.050;2023-11-19T18:01:31;1.53;;;1.30;;
13234;SDS011;6683;48.506;9.050;2023-11-19T18:04:37;1.70;;;1.33;;
13234;SDS011;6683;48.506;9.050;2023-11-19T18:07:39;1.53;;;1.30;;
13234;SDS011;6683;48.506;9.050;2023-11-19T18:10:42;3.37;;;1.93;;
13234;SDS011;6683;48.506;9.050;2023-11-19T18:13:44;1.93;;;1.70;;
13234;SDS011;6683;48.506;9.050;2023-11-19T18:16:49;3.83;;;1.97;;
13234;SDS011;6683;48.506;9.050;2023-11-19T18:19:53;1.90;;;1.70;;
13234;SDS011;6683;48.506;9.050;2023-11-19T18:22:55;3.87;;;2.03;;
13234;SDS011;6683;48.506;9.050;2023-11-19T18:25:58;3.23;;;2.33;;
13234;SDS011;6683;48.506;9.050;2023-11-19T18:29:00;2.77;;;2.17;;
13234;SDS011;6683;48.506;9.050;2023-11-19T18:32:03;3.20;;;2.17;;
13234;SDS011;6683;48.506;9.050;2023-11-19T18:35:11;3.00;;;2.40;;
13234;SDS011;6683;48.506;9.050;2023-11-19T18:38:16;2.43;;;1.97;;
13234;SDS011;6683;48.506;9.050;2023-11-19T18:41:19;3.20;;;2.10;;
13234;SDS011;6683;48.506;9.050;2023-11-19T18:44:21;3.43;;;2.30;;
13234;SDS011;6683;48.506;9.050;2023-11-19T18:47:23;2.60;;;2.40;;
13234;SDS011;6683;48.506;9.050;2023-11-19T18:50:27;3.43;;;2.50;;